Time;durP1;ratioP1;P1;durP2;ratioP2;P2;SDS_P1;SDS_P2;PMS_P1;PMS_P2;Temp;Humidity;BMP_temperature;BMP_pressure;BME280_temperature;BME280_humidity;BME280_pressure;Samples;Min_cycle;Max_cycle;Signal;HPM_P1;HPM_P2
2022/05/01 00:00:57;;;;;;;55.97;29.05;;;7.80;99.90;;;;;;5071929;28;20129;-50
2022/05/01 00:03:31;;;;;;;65.68;30.88;;;7.80;99.90;;;;;;5072032;28;20044;-52
2022/05/01 00:06:04;;;;;;;60.08;31.15;;;7.90;99.90;;;;;;5072101;28;20028;-49
2022/05/01 00:08:33;;;;;;;61.90;31.40;;;7.80;99.90;;;;;;5072084;28;20031;-52
2022/05/01 00:11:00;;;;;;;53.90;30.73;;;7.80;99.90;;;;;;5071736;28;20021;-51
2022/05/01 00:13:27;;;;;;;56.65;30.00;;;7.80;99.90;;;;;;5072106;28;20371;-50
2022/05/01 00:15:54;;;;;;;55.35;28.70;;;7.70;99.90;;;;;;5071500;28;20395;-52
2022/05/01 00:18:20;;;;;;;58.47;27.10;;;7.80;99.90;;;;;;5070712;28;20024;-50
2022/05/01 00:20:46;;;;;;;52.65;25.80;;;7.70;99.90;;;;;;5071217;28;20498;-50
2022/05/01 00:23:12;;;;;;;46.20;23.90;;;7.70;99.90;;;;;;5071832;28;20378;-51
2022/05/01 00:25:41;;;;;;;51.33;24.83;;;7.80;99.90;;;;;;5071700;28;20021;-50
2022/05/01 00:28:08;;;;;;;46.85;23.63;;;7.80;99.90;;;;;;5071750;28;20039;-49
2022/05/01 00:30:35;;;;;;;54.90;26.33;;;7.80;99.90;;;;;;5071089;28;20024;-53
2022/05/01 00:38:30;;;;;;;41.97;22.35;;;8.10;99.90;;;;;;5071652;28;20074;-52
2022/05/01 00:40:56;;;;;;;43.90;23.15;;;8.10;99.90;;;;;;5071379;28;20070;-50
2022/05/01 00:43:23;;;;;;;54.00;26.40;;;8.00;99.90;;;;;;5071275;28;20036;-51
2022/05/01 00:45:49;;;;;;;49.88;26.35;;;8.00;99.90;;;;;;5071055;28;20024;-51
2022/05/01 00:48:15;;;;;;;53.72;27.23;;;7.90;99.90;;;;;;5071101;28;20051;-50
2022/05/01 00:50:41;;;;;;;55.95;28.63;;;7.80;99.90;;;;;;5052819;28;20029;-49
2022/05/01 00:53:08;;;;;;;60.08;27.23;;;7.70;99.90;;;;;;5071189;28;20527;-50
2022/05/01 00:55:35;;;;;;;59.55;29.83;;;7.50;99.90;;;;;;5070722;28;20388;-52
2022/05/01 00:58:03;;;;;;;57.35;29.35;;;7.40;99.90;;;;;;5070880;28;20571;-51
2022/05/01 01:00:29;;;;;;;53.58;28.83;;;7.40;99.90;;;;;;5070908;28;20098;-50
2022/05/01 01:02:55;;;;;;;65.32;30.25;;;7.30;99.90;;;;;;5070948;28;20032;-51
2022/05/01 01:05:21;;;;;;;62.95;30.30;;;7.30;99.90;;;;;;5070681;28;20032;-50
2022/05/01 01:07:47;;;;;;;61.25;30.88;;;7.30;99.90;;;;;;5071060;28;20048;-49
2022/05/01 01:10:13;;;;;;;61.17;31.40;;;7.30;99.90;;;;;;5070428;28;20149;-53
2022/05/01 01:12:54;;;;;;;64.38;31.10;;;7.30;99.90;;;;;;5070830;28;20035;-50
2022/05/01 01:15:25;;;;;;;55.80;30.25;;;7.30;99.90;;;;;;5070550;28;20036;-49
2022/05/01 01:17:54;;;;;;;63.42;31.23;;;7.30;99.90;;;;;;5070628;28;20106;-50
2022/05/01 01:20:25;;;;;;;69.00;33.45;;;7.30;99.90;;;;;;5070606;28;20025;-50
2022/05/01 01:22:56;;;;;;;63.92;32.33;;;7.30;99.90;;;;;;5070470;28;20040;-53
2022/05/01 01:25:26;;;;;;;60.03;32.45;;;7.40;99.90;;;;;;5052320;28;20463;-52
2022/05/01 01:27:54;;;;;;;61.80;31.38;;;7.40;99.90;;;;;;5070403;28;20020;-50
2022/05/01 01:33:06;;;;;;;56.88;30.60;;;7.60;99.90;;;;;;5070841;28;20036;-49
2022/05/01 01:35:37;;;;;;;63.60;31.30;;;7.50;99.90;;;;;;5070196;28;20031;-51
2022/05/01 01:38:03;;;;;;;60.60;30.95;;;7.50;99.90;;;;;;5052476;28;20143;-51
2022/05/01 01:40:31;;;;;;;59.90;31.63;;;7.50;99.90;;;;;;5069929;28;20103;-51
2022/05/01 01:42:58;;;;;;;65.63;32.13;;;7.50;99.90;;;;;;5070288;28;20079;-52
2022/05/01 01:45:28;;;;;;;58.72;31.95;;;7.40;99.90;;;;;;5052688;28;20146;-49
2022/05/01 01:48:11;;;;;;;66.13;32.97;;;7.10;99.90;;;;;;5070285;28;20028;-51
2022/05/01 01:50:37;;;;;;;65.22;32.35;;;7.10;99.90;;;;;;5069757;28;20039;-49
2022/05/01 01:53:03;;;;;;;67.47;31.88;;;7.00;99.90;;;;;;5069958;28;20116;-50
2022/05/01 01:55:33;;;;;;;60.50;31.55;;;7.00;99.90;;;;;;5069775;28;20472;-50
2022/05/01 01:58:00;;;;;;;61.08;30.58;;;7.00;99.90;;;;;;5070209;28;20027;-50
2022/05/01 02:00:27;;;;;;;51.90;29.00;;;7.00;99.90;;;;;;5069547;28;20418;-48
2022/05/01 02:03:00;;;;;;;64.13;31.27;;;7.10;99.90;;;;;;5069877;28;20499;-50
2022/05/01 02:05:27;;;;;;;56.00;30.10;;;7.00;99.90;;;;;;5069658;28;20075;-49
2022/05/01 02:07:53;;;;;;;57.35;31.60;;;7.00;99.90;;;;;;5069849;28;20024;-51
2022/05/01 02:10:22;;;;;;;58.75;31.33;;;7.00;99.90;;;;;;5069805;28;20542;-50
2022/05/01 02:12:47;;;;;;;62.17;32.17;;;7.00;99.90;;;;;;5069551;28;20147;-49
2022/05/01 02:15:13;;;;;;;53.50;28.98;;;7.00;99.90;;;;;;5069543;28;20103;-49
2022/05/01 02:17:40;;;;;;;50.45;26.85;;;6.90;99.90;;;;;;5069407;28;20052;-50
2022/05/01 02:20:08;;;;;;;50.33;28.42;;;6.80;99.90;;;;;;5069360;28;20024;-50
2022/05/01 02:22:43;;;;;;;47.38;27.65;;;6.80;99.90;;;;;;5069372;28;20074;-53
2022/05/01 02:25:12;;;;;;;52.10;27.52;;;6.80;99.90;;;;;;5069427;28;20024;-51
2022/05/01 02:27:38;;;;;;;46.42;27.48;;;6.90;99.90;;;;;;5069547;28;20024;-50
2022/05/01 02:30:06;;;;;;;54.38;27.90;;;6.90;99.90;;;;;;5069375;28;20051;-50
2022/05/01 02:32:31;;;;;;;46.95;26.52;;;6.80;99.90;;;;;;5069245;28;20158;-49
2022/05/01 02:34:57;;;;;;;45.67;26.55;;;6.80;99.90;;;;;;5051321;28;20028;-50
2022/05/01 02:37:23;;;;;;;56.83;28.52;;;6.90;99.90;;;;;;5069435;28;20038;-51
2022/05/01 02:39:48;;;;;;;47.50;25.58;;;6.80;99.90;;;;;;5068703;28;20368;-50
2022/05/01 02:42:14;;;;;;;48.33;27.25;;;6.80;99.90;;;;;;5068973;28;20062;-50
2022/05/01 02:44:40;;;;;;;45.90;25.90;;;6.80;99.90;;;;;;5051136;28;20060;-50
2022/05/01 02:47:06;;;;;;;47.70;25.98;;;6.80;99.90;;;;;;5051038;28;20040;-50
2022/05/01 02:49:32;;;;;;;43.58;25.45;;;6.70;99.90;;;;;;5069319;28;20425;-48
2022/05/01 02:51:58;;;;;;;47.90;27.27;;;6.60;99.90;;;;;;5069204;28;20025;-51
2022/05/01 02:54:24;;;;;;;49.55;27.85;;;6.50;99.90;;;;;;5069360;28;20033;-50
2022/05/01 02:56:50;;;;;;;43.25;25.98;;;6.50;99.90;;;;;;5064062;28;20479;-50
2022/05/01 02:59:17;;;;;;;50.72;26.60;;;6.40;99.90;;;;;;5065087;28;20057;-51
2022/05/01 03:01:43;;;;;;;46.38;24.42;;;6.30;99.90;;;;;;5069105;28;20112;-51
2022/05/01 03:04:09;;;;;;;48.15;26.10;;;6.40;99.90;;;;;;5069219;28;20219;-51
2022/05/01 03:06:35;;;;;;;54.80;27.35;;;6.40;99.90;;;;;;5069067;28;20108;-53
2022/05/01 03:09:01;;;;;;;48.80;27.13;;;6.40;99.90;;;;;;5069166;28;20037;-51
2022/05/01 03:11:27;;;;;;;44.65;26.10;;;6.40;99.90;;;;;;5069332;28;20025;-51
2022/05/01 03:13:53;;;;;;;53.20;27.85;;;6.50;99.90;;;;;;5050701;28;20033;-50
2022/05/01 03:16:19;;;;;;;52.17;28.50;;;6.40;99.90;;;;;;5068748;28;20495;-51
2022/05/01 03:24:17;;;;;;;49.65;27.42;;;6.20;99.90;;;;;;5069252;28;20216;-51
2022/05/01 03:26:42;;;;;;;48.45;26.65;;;6.30;99.90;;;;;;5069159;28;20048;-50
2022/05/01 03:29:10;;;;;;;49.17;27.80;;;6.20;99.90;;;;;;5068972;28;20059;-50
2022/05/01 03:31:37;;;;;;;53.08;29.92;;;6.20;99.90;;;;;;5069140;28;20040;-50
2022/05/01 03:34:04;;;;;;;61.88;32.72;;;6.10;99.90;;;;;;5068572;28;20440;-51
2022/05/01 03:36:31;;;;;;;57.28;30.33;;;6.20;99.90;;;;;;5068974;28;20070;-51
2022/05/01 03:38:57;;;;;;;63.63;32.58;;;6.30;99.90;;;;;;5068903;28;20103;-51
2022/05/01 03:41:23;;;;;;;75.85;36.65;;;6.10;99.90;;;;;;5068812;28;20491;-50
2022/05/01 03:43:48;;;;;;;66.05;36.25;;;6.10;99.90;;;;;;5069014;28;20687;-52
2022/05/01 03:46:14;;;;;;;68.70;37.50;;;6.10;99.90;;;;;;5068716;28;20024;-50
2022/05/01 03:48:40;;;;;;;74.15;39.13;;;6.00;99.90;;;;;;5069102;28;20110;-53
2022/05/01 03:51:06;;;;;;;64.75;35.97;;;6.20;99.90;;;;;;5068790;28;20398;-51
2022/05/01 03:53:31;;;;;;;62.15;35.97;;;6.20;99.90;;;;;;5072053;28;20107;-49
2022/05/01 03:55:57;;;;;;;58.33;31.52;;;6.10;99.90;;;;;;5072133;28;20285;-48
2022/05/01 03:58:23;;;;;;;55.15;31.02;;;6.10;99.90;;;;;;5072398;28;20029;-50
2022/05/01 04:00:50;;;;;;;59.70;33.45;;;6.10;99.90;;;;;;5072136;28;20162;-51
2022/05/01 04:03:16;;;;;;;;;;;6.10;99.90;;;;;;5072763;28;20089;-50
2022/05/01 04:05:42;;;;;;;57.78;32.78;;;6.20;99.90;;;;;;5071796;28;19908;-50
2022/05/01 04:08:09;;;;;;;62.25;36.33;;;6.20;99.90;;;;;;5072152;28;20036;-50
2022/05/01 04:10:41;;;;;;;66.77;37.97;;;6.10;99.90;;;;;;5072120;28;20132;-52
2022/05/01 04:13:07;;;;;;;69.68;38.67;;;6.10;99.90;;;;;;5072120;28;20032;-51
2022/05/01 04:15:33;;;;;;;70.23;37.97;;;6.10;99.90;;;;;;5071593;28;20395;-50
2022/05/01 04:18:00;;;;;;;66.18;37.13;;;6.10;99.90;;;;;;5072185;28;20490;-52
2022/05/01 04:20:26;;;;;;;62.30;36.77;;;6.20;99.90;;;;;;5072083;28;20090;-51
2022/05/01 04:22:52;;;;;;;67.90;36.90;;;6.20;99.90;;;;;;5071563;28;20299;-50
2022/05/01 04:25:20;;;;;;;67.43;36.20;;;6.20;99.90;;;;;;5072005;28;20044;-50
2022/05/01 04:27:48;;;;;;;64.05;37.05;;;6.40;99.90;;;;;;5072197;28;20082;-50
2022/05/01 04:30:15;;;;;;;72.30;36.45;;;6.60;99.90;;;;;;5071872;28;20031;-51
2022/05/01 04:32:48;;;;;;;68.32;36.20;;;6.60;99.90;;;;;;5071611;28;20116;-52
2022/05/01 04:35:13;;;;;;;63.83;34.92;;;6.60;99.90;;;;;;5071619;28;20040;-51
2022/05/01 04:37:39;;;;;;;61.30;34.90;;;6.70;99.90;;;;;;5071634;28;20051;-50
2022/05/01 04:40:05;;;;;;;67.38;36.85;;;6.70;99.90;;;;;;5071633;28;20032;-51
2022/05/01 04:42:31;;;;;;;66.38;36.33;;;6.80;99.90;;;;;;5071425;28;20033;-49
2022/05/01 04:44:57;;;;;;;67.45;38.65;;;6.90;99.90;;;;;;5071664;28;20025;-51
2022/05/01 04:47:22;;;;;;;69.28;37.88;;;7.00;99.90;;;;;;5071613;28;20078;-51
2022/05/01 04:49:50;;;;;;;73.60;39.20;;;7.10;99.90;;;;;;5071295;28;20028;-51
2022/05/01 04:52:15;;;;;;;;;;;7.20;99.90;;;;;;5072169;28;20111;-50
2022/05/01 04:54:41;;;;;;;63.03;35.08;;;7.40;99.90;;;;;;5070459;28;19991;-51
2022/05/01 04:57:08;;;;;;;62.45;35.22;;;7.50;99.90;;;;;;5071361;28;20020;-52
2022/05/01 04:59:34;;;;;;;59.75;35.05;;;7.60;99.90;;;;;;5070857;28;20032;-50
2022/05/01 05:02:00;;;;;;;65.00;35.10;;;7.80;99.90;;;;;;5053155;28;20039;-50
2022/05/01 05:04:27;;;;;;;60.70;33.08;;;7.80;99.90;;;;;;5069998;28;20082;-51
2022/05/01 05:06:54;;;;;;;66.90;35.50;;;7.90;99.90;;;;;;5071080;28;20111;-50
2022/05/01 05:12:09;;;;;;;57.45;32.03;;;8.10;99.90;;;;;;5071425;28;20031;-51
2022/05/01 05:14:35;;;;;;;55.08;32.28;;;8.20;99.90;;;;;;5070498;28;20067;-51
2022/05/01 05:17:01;;;;;;;60.25;33.42;;;8.10;99.90;;;;;;5070533;28;20087;-51
2022/05/01 05:19:27;;;;;;;60.85;33.33;;;8.10;99.90;;;;;;5071014;28;20035;-49
2022/05/01 05:21:53;;;;;;;55.53;31.42;;;8.20;99.90;;;;;;5070780;28;20036;-50
2022/05/01 05:24:19;;;;;;;57.20;31.08;;;8.20;99.90;;;;;;5070436;28;20059;-50
2022/05/01 05:26:45;;;;;;;61.67;33.10;;;8.30;99.90;;;;;;5070752;28;20025;-50
2022/05/01 05:29:11;;;;;;;58.72;30.77;;;8.40;99.90;;;;;;5070498;28;20061;-51
2022/05/01 05:31:36;;;;;;;51.67;30.15;;;8.50;99.90;;;;;;5070294;28;20467;-51
2022/05/01 05:34:02;;;;;;;54.17;29.58;;;8.70;99.90;;;;;;5070675;28;20028;-53
2022/05/01 05:36:28;;;;;;;50.17;28.55;;;8.80;99.90;;;;;;5070404;28;20024;-50
2022/05/01 05:38:53;;;;;;;51.55;28.33;;;8.90;99.90;;;;;;5070485;28;20064;-50
2022/05/01 05:41:19;;;;;;;54.90;29.67;;;8.90;99.90;;;;;;5070224;28;20102;-50
2022/05/01 05:43:45;;;;;;;50.08;29.35;;;9.00;99.90;;;;;;5070451;28;20068;-50
2022/05/01 05:46:10;;;;;;;47.80;26.17;;;9.10;99.90;;;;;;5070108;28;20040;-51
2022/05/01 05:48:37;;;;;;;47.85;24.85;;;9.20;99.90;;;;;;5070819;28;20020;-51
2022/05/01 05:51:04;;;;;;;43.33;24.07;;;9.30;99.90;;;;;;5069940;28;20017;-51
2022/05/01 05:53:30;;;;;;;41.40;25.65;;;9.40;99.90;;;;;;5070353;28;20035;-51
2022/05/01 05:55:57;;;;;;;40.20;22.65;;;9.50;99.90;;;;;;5070105;28;20025;-50
2022/05/01 05:58:22;;;;;;;41.80;22.27;;;9.60;99.90;;;;;;5069944;28;20048;-49
2022/05/01 06:00:48;;;;;;;41.45;22.10;;;9.70;99.90;;;;;;5052151;28;20384;-52
2022/05/01 06:03:14;;;;;;;36.15;20.95;;;9.80;99.90;;;;;;5070417;28;20040;-52
2022/05/01 06:05:39;;;;;;;41.15;21.95;;;10.00;99.90;;;;;;5069844;28;20046;-51
2022/05/01 06:08:05;;;;;;;34.53;20.35;;;10.10;99.90;;;;;;5070285;28;20028;-51
2022/05/01 06:10:31;;;;;;;40.20;20.10;;;10.30;99.90;;;;;;5069716;28;20052;-51
2022/05/01 06:12:57;;;;;;;34.53;20.33;;;10.40;99.90;;;;;;5070348;28;20546;-51
2022/05/01 06:15:22;;;;;;;35.03;20.77;;;10.50;99.90;;;;;;5068604;28;20488;-51
2022/05/01 06:17:50;;;;;;;36.08;19.75;;;10.60;99.90;;;;;;5069467;28;20032;-50
2022/05/01 06:20:15;;;;;;;37.63;20.20;;;10.90;99.90;;;;;;5051795;28;20067;-51
2022/05/01 06:22:41;;;;;;;39.25;20.50;;;11.10;99.90;;;;;;5069979;28;20072;-50
2022/05/01 06:25:07;;;;;;;38.90;21.20;;;11.10;99.90;;;;;;5069529;28;20025;-50
2022/05/01 06:27:33;;;;;;;35.50;20.15;;;11.30;99.90;;;;;;5069945;28;20073;-52
2022/05/01 06:29:59;;;;;;;39.03;22.77;;;11.40;99.90;;;;;;5069652;28;20025;-51
2022/05/01 06:32:25;;;;;;;38.08;19.88;;;11.40;99.90;;;;;;5070001;28;20411;-52
2022/05/01 06:34:52;;;;;;;39.10;21.55;;;11.50;99.90;;;;;;5069321;28;20032;-50
2022/05/01 06:37:18;;;;;;;32.85;19.65;;;11.60;99.90;;;;;;5069729;28;20040;-49
2022/05/01 06:39:43;;;;;;;38.58;21.08;;;11.70;99.90;;;;;;5069616;28;20025;-49
2022/05/01 06:42:10;;;;;;;40.38;20.02;;;11.80;99.90;;;;;;5069635;28;20032;-50
2022/05/01 06:44:36;;;;;;;36.28;19.27;;;11.90;99.90;;;;;;5069250;28;20032;-50
2022/05/01 06:47:02;;;;;;;38.08;19.90;;;12.00;99.90;;;;;;5069664;28;20480;-49
2022/05/01 06:49:27;;;;;;;39.55;19.60;;;12.10;99.90;;;;;;5069190;28;20024;-50
2022/05/01 06:51:53;;;;;;;40.75;19.80;;;12.20;99.90;;;;;;5069585;28;20028;-51
2022/05/01 06:54:19;;;;;;;39.75;19.30;;;12.40;99.90;;;;;;5069037;28;20028;-51
2022/05/01 06:56:44;;;;;;;36.45;19.30;;;12.50;99.90;;;;;;5069573;28;20111;-51
2022/05/01 06:59:11;;;;;;;33.25;19.02;;;12.70;99.90;;;;;;5069128;28;20215;-49
2022/05/01 07:01:37;;;;;;;32.72;17.33;;;12.80;99.90;;;;;;5069091;28;20039;-51
2022/05/01 07:04:02;;;;;;;36.95;18.33;;;13.00;99.90;;;;;;5069410;28;20107;-49
2022/05/01 07:06:28;;;;;;;37.78;19.83;;;13.10;99.90;;;;;;5051161;28;20498;-50
2022/05/01 07:08:54;;;;;;;37.70;20.98;;;13.20;99.90;;;;;;5069441;28;20431;-50
2022/05/01 07:11:19;;;;;;;31.77;18.50;;;13.30;99.90;;;;;;5069234;28;20141;-50
2022/05/01 07:13:45;;;;;;;36.88;16.98;;;13.50;99.90;;;;;;5069035;28;20036;-51
2022/05/01 07:16:11;;;;;;;29.60;17.52;;;13.60;99.90;;;;;;5068852;28;20462;-51
2022/05/01 07:18:36;;;;;;;31.90;16.95;;;13.70;98.70;;;;;;5069144;28;20097;-50
2022/05/01 07:21:02;;;;;;;32.35;16.67;;;14.00;99.90;;;;;;5069214;28;20108;-49
2022/05/01 07:23:28;;;;;;;32.25;17.52;;;14.10;99.20;;;;;;5067712;28;20650;-51
2022/05/01 07:25:54;;;;;;;30.05;17.00;;;14.20;95.40;;;;;;5068365;28;20032;-51
2022/05/01 07:28:20;;;;;;;29.80;16.83;;;14.20;95.90;;;;;;5072062;28;20074;-51
2022/05/01 07:30:45;;;;;;;29.10;15.98;;;14.30;97.20;;;;;;5071823;28;20094;-50
2022/05/01 07:33:11;;;;;;;28.95;16.90;;;14.40;96.60;;;;;;5072438;28;20103;-50
2022/05/01 07:35:37;;;;;;;25.88;15.95;;;14.60;98.20;;;;;;5072577;28;20036;-50
2022/05/01 07:38:03;;;;;;;29.00;16.77;;;14.50;93.40;;;;;;5072980;28;20024;-51
2022/05/01 07:40:29;;;;;;;28.40;16.65;;;14.60;91.70;;;;;;5071716;28;20064;-51
2022/05/01 07:42:55;;;;;;;29.90;15.57;;;14.60;91.60;;;;;;5071569;28;20064;-49
2022/05/01 07:45:20;;;;;;;30.17;16.45;;;14.80;93.60;;;;;;5071012;28;20098;-51
2022/05/01 07:47:46;;;;;;;28.98;15.15;;;15.00;94.20;;;;;;5071534;28;20207;-49
2022/05/01 07:50:13;;;;;;;25.98;14.75;;;15.20;93.90;;;;;;5071814;28;20021;-50
2022/05/01 07:52:39;;;;;;;27.02;15.40;;;15.40;94.70;;;;;;5071605;28;20088;-50
2022/05/01 07:55:06;;;;;;;32.03;15.27;;;15.50;91.80;;;;;;5052901;28;20115;-49
2022/05/01 07:57:32;;;;;;;24.67;15.00;;;15.70;91.60;;;;;;5071159;28;20020;-51
2022/05/01 07:59:57;;;;;;;28.17;14.27;;;15.80;90.70;;;;;;5071113;28;20135;-50
2022/05/01 08:02:23;;;;;;;25.23;14.35;;;15.90;89.70;;;;;;5072367;28;20035;-51
2022/05/01 08:04:49;;;;;;;26.08;14.07;;;16.10;90.70;;;;;;5071823;28;20094;-51
2022/05/01 08:07:15;;;;;;;32.33;14.77;;;16.20;90.20;;;;;;5072651;28;20029;-50
2022/05/01 08:09:41;;;;;;;24.73;15.20;;;16.30;85.90;;;;;;5072277;28;20047;-50
2022/05/01 08:12:07;;;;;;;23.20;13.05;;;16.50;88.50;;;;;;5054180;28;20396;-50
2022/05/01 08:14:33;;;;;;;20.45;12.43;;;16.60;82.70;;;;;;5072235;28;20020;-51
2022/05/01 08:16:58;;;;;;;19.75;11.85;;;16.70;83.60;;;;;;5071307;28;20044;-50
2022/05/01 08:22:09;;;;;;;22.80;12.43;;;16.90;82.80;;;;;;5070663;28;20063;-53
2022/05/01 08:24:35;;;;;;;18.42;10.50;;;17.10;79.10;;;;;;5070392;28;20120;-53
2022/05/01 08:27:05;;;;;;;20.90;10.93;;;17.30;81.40;;;;;;5052117;28;20116;-51
2022/05/01 08:29:39;;;;;;;21.35;11.70;;;17.40;78.00;;;;;;5070465;28;20063;-53
2022/05/01 08:32:06;;;;;;;20.00;11.05;;;17.60;71.80;;;;;;5068054;28;20016;-52
2022/05/01 08:34:32;;;;;;;26.83;9.60;;;17.50;72.10;;;;;;5070288;28;20056;-51
2022/05/01 08:36:58;;;;;;;16.73;9.13;;;17.60;75.50;;;;;;5069159;28;20115;-52
2022/05/01 08:39:23;;;;;;;18.35;9.65;;;17.80;74.80;;;;;;5068353;28;20610;-52
2022/05/01 08:41:49;;;;;;;19.02;10.30;;;18.10;76.80;;;;;;5069152;28;20054;-52
2022/05/01 08:44:46;;;;;;;20.10;9.80;;;18.20;74.90;;;;;;5068461;28;20033;-51
2022/05/01 08:47:22;;;;;;;16.67;9.70;;;18.40;74.10;;;;;;5064582;28;20071;-51
2022/05/01 08:49:53;;;;;;;19.65;10.73;;;18.40;69.70;;;;;;5068435;28;20472;-52
2022/05/01 08:52:21;;;;;;;18.85;8.98;;;18.50;69.10;;;;;;5070003;28;20028;-51
2022/05/01 08:54:48;;;;;;;13.40;8.20;;;18.60;68.70;;;;;;5069439;28;20032;-50
2022/05/01 08:57:18;;;;;;;15.38;8.95;;;18.70;65.20;;;;;;5069793;28;20020;-50
2022/05/01 08:59:46;;;;;;;14.70;6.95;;;18.70;65.90;;;;;;5051739;28;20048;-51
2022/05/01 09:02:11;;;;;;;11.82;7.43;;;19.00;65.40;;;;;;5069440;28;20540;-50
2022/05/01 09:04:38;;;;;;;12.45;7.18;;;19.20;62.80;;;;;;5069428;28;20112;-51
2022/05/01 09:07:04;;;;;;;13.38;7.30;;;19.10;63.00;;;;;;5069723;28;20025;-49
2022/05/01 09:09:30;;;;;;;13.93;8.00;;;19.10;57.10;;;;;;5051080;28;20086;-50
2022/05/01 09:14:41;;;;;;;12.90;7.70;;;19.30;60.30;;;;;;5069440;28;20072;-51
2022/05/01 09:17:13;;;;;;;13.30;7.53;;;19.50;62.50;;;;;;5069170;28;20072;-50
2022/05/01 09:19:43;;;;;;;13.88;8.50;;;19.50;62.10;;;;;;5069252;28;20029;-52
2022/05/01 09:22:09;;;;;;;13.68;8.00;;;19.60;61.50;;;;;;5069178;28;20164;-51
2022/05/01 09:24:35;;;;;;;10.73;6.88;;;19.70;63.90;;;;;;5069079;28;20120;-50
2022/05/01 09:27:01;;;;;;;10.95;6.32;;;20.00;63.80;;;;;;5069610;28;20280;-50
2022/05/01 09:29:34;;;;;;;12.35;6.57;;;20.30;58.40;;;;;;5068484;28;20086;-50
2022/05/01 09:32:03;;;;;;;10.50;6.45;;;20.40;55.20;;;;;;5069258;28;20028;-51
2022/05/01 09:34:32;;;;;;;13.65;7.18;;;20.50;57.80;;;;;;5068744;28;20032;-50
2022/05/01 09:37:03;;;;;;;13.48;6.63;;;20.50;55.60;;;;;;5069072;28;20059;-51
2022/05/01 09:39:33;;;;;;;14.07;7.22;;;20.40;53.20;;;;;;5067618;28;20032;-52
2022/05/01 09:42:19;;;;;;;12.85;6.60;;;20.20;55.20;;;;;;5068123;28;20087;-50
2022/05/01 09:45:05;;;;;;;12.75;6.53;;;19.90;54.70;;;;;;5068663;28;20029;-51
2022/05/01 09:47:37;;;;;;;12.52;6.68;;;20.50;55.50;;;;;;5068703;28;20101;-49
2022/05/01 09:50:05;;;;;;;12.60;6.22;;;20.60;56.40;;;;;;5066672;28;20020;-51
2022/05/01 09:52:56;;;;;;;12.23;6.38;;;20.60;54.50;;;;;;5048565;28;20036;-53
2022/05/01 09:55:23;;;;;;;11.70;6.70;;;20.80;55.30;;;;;;5067416;28;20024;-52
2022/05/01 09:57:48;;;;;;;12.68;5.70;;;20.80;53.10;;;;;;5068007;28;20021;-51
2022/05/01 10:00:32;;;;;;;10.90;6.45;;;20.50;53.30;;;;;;5067725;28;20031;-50
2022/05/01 10:02:58;;;;;;;39.88;30.00;;;20.00;53.60;;;;;;5065491;28;20040;-51
2022/05/01 10:05:24;;;;;;;12.20;8.93;;;20.40;54.20;;;;;;5067904;28;20016;-49
2022/05/01 10:07:50;;;;;;;10.77;6.40;;;20.20;54.40;;;;;;5048644;28;20491;-50
2022/05/01 10:10:16;;;;;;;14.40;5.75;;;20.50;55.30;;;;;;5067285;28;20142;-50
2022/05/01 10:12:45;;;;;;;12.52;7.15;;;20.70;55.60;;;;;;5067507;28;20074;-51
2022/05/01 10:15:11;;;;;;;13.50;6.45;;;20.90;55.70;;;;;;5067479;28;20021;-49
2022/05/01 10:17:39;;;;;;;8.43;5.90;;;20.80;53.90;;;;;;5067544;28;20694;-51
2022/05/01 10:20:05;;;;;;;12.35;6.43;;;20.80;52.90;;;;;;5068145;28;20063;-51
2022/05/01 10:22:32;;;;;;;12.23;7.22;;;20.80;53.40;;;;;;5068223;28;20029;-50
2022/05/01 10:24:57;;;;;;;;;;;21.10;54.30;;;;;;5067153;28;20112;-50
2022/05/01 10:27:42;;;;;;;9.10;5.45;;;21.40;56.30;;;;;;5067668;28;19987;-50
2022/05/01 10:33:44;;;;;;;10.73;6.10;;;21.00;51.40;;;;;;5066838;28;20109;-51
2022/05/01 10:36:27;;;;;;;9.27;4.97;;;20.60;52.20;;;;;;5038945;28;20053;-50
2022/05/01 10:39:06;;;;;;;6.90;4.43;;;20.90;50.40;;;;;;5067523;28;20523;-51
2022/05/01 10:41:33;;;;;;;11.45;5.45;;;20.80;51.20;;;;;;5066246;28;20024;-51
2022/05/01 10:44:02;;;;;;;11.40;5.28;;;21.10;49.70;;;;;;5067299;28;20499;-50
2022/05/01 10:46:32;;;;;;;8.30;4.82;;;21.70;52.40;;;;;;5065935;28;20094;-51
2022/05/01 10:49:18;;;;;;;11.52;5.05;;;21.60;48.50;;;;;;5049388;28;20074;-51
2022/05/01 10:51:46;;;;;;;7.70;4.43;;;21.80;49.10;;;;;;5066079;28;20020;-50
2022/05/01 10:54:18;;;;;;;11.23;5.22;;;21.90;48.20;;;;;;5049122;28;20481;-52
2022/05/01 10:56:49;;;;;;;7.18;4.57;;;21.70;46.60;;;;;;5067670;28;20070;-50
2022/05/01 10:59:39;;;;;;;9.65;4.57;;;22.00;46.70;;;;;;5067862;28;20024;-51
2022/05/01 11:02:22;;;;;;;7.10;4.70;;;21.80;47.10;;;;;;5068824;28;20167;-51
2022/05/01 11:04:48;;;;;;;8.10;4.78;;;21.90;46.50;;;;;;5071844;28;20540;-51
2022/05/01 11:07:16;;;;;;;8.90;4.30;;;22.20;48.20;;;;;;5071195;28;20028;-51
2022/05/01 11:09:47;;;;;;;6.60;3.90;;;22.20;47.10;;;;;;5071554;28;20021;-51
2022/05/01 11:12:14;;;;;;;7.63;4.25;;;22.40;47.50;;;;;;5071109;28;20031;-50
2022/05/01 11:14:51;;;;;;;6.38;4.03;;;22.20;43.20;;;;;;5071509;28;20061;-49
2022/05/01 11:17:29;;;;;;;9.15;4.50;;;21.80;43.40;;;;;;5071427;28;20075;-50
2022/05/01 11:20:23;;;;;;;6.78;3.88;;;22.10;44.60;;;;;;5070962;28;20024;-50
2022/05/01 11:22:50;;;;;;;8.50;4.68;;;21.60;44.30;;;;;;5071760;28;20062;-50
2022/05/01 11:25:34;;;;;;;8.25;4.05;;;21.70;45.00;;;;;;5072560;28;20074;-49
2022/05/01 11:28:00;;;;;;;6.90;3.95;;;21.70;45.40;;;;;;5070745;28;20116;-49
2022/05/01 11:30:29;;;;;;;9.48;4.63;;;21.80;46.90;;;;;;5071358;28;20055;-49
2022/05/01 11:33:00;;;;;;;15.18;4.07;;;21.70;45.20;;;;;;5071820;28;20020;-49
2022/05/01 11:35:54;;;;;;;9.85;3.75;;;21.20;44.80;;;;;;5071140;28;20036;-49
2022/05/01 11:38:22;;;;;;;7.47;4.03;;;20.70;45.10;;;;;;5070397;28;20016;-48
2022/05/01 11:41:00;;;;;;;32.33;14.70;;;20.60;48.20;;;;;;5071494;28;20523;-50
2022/05/01 11:43:28;;;;;;;;;;;20.70;46.90;;;;;;5072176;28;20094;-50
2022/05/01 11:45:57;;;;;;;;;;;20.80;47.50;;;;;;5071673;28;19962;-49
2022/05/01 11:48:23;;;;;;;9.55;4.07;;;20.80;46.20;;;;;;5071029;28;19920;-50
2022/05/01 11:50:53;;;;;;;8.60;4.88;;;20.60;46.00;;;;;;5070718;28;20480;-51
2022/05/01 11:53:28;;;;;;;10.35;4.40;;;20.60;46.80;;;;;;5070796;28;20032;-51
2022/05/01 12:04:27;;;;;;;10.55;5.20;;;20.90;49.20;;;;;;5068940;28;20047;-50
2022/05/01 12:07:15;;;;;;;8.18;4.78;;;21.00;49.40;;;;;;5070784;28;20021;-50
2022/05/01 12:09:42;;;;;;;6.10;4.17;;;21.20;51.10;;;;;;5070610;28;20115;-51
2022/05/01 12:12:11;;;;;;;8.20;4.85;;;21.50;50.30;;;;;;5071091;28;20444;-51
2022/05/01 12:14:38;;;;;;;9.80;4.95;;;21.50;46.70;;;;;;5070940;28;20043;-50
2022/05/01 12:17:14;;;;;;;11.05;5.75;;;21.80;48.60;;;;;;5070864;28;20056;-50
2022/05/01 12:19:48;;;;;;;6.88;4.55;;;21.90;46.70;;;;;;5070285;28;20468;-48
2022/05/01 12:22:16;;;;;;;7.80;5.00;;;22.10;48.30;;;;;;5068697;28;20047;-50
2022/05/01 12:24:43;;;;;;;10.85;5.13;;;21.90;45.50;;;;;;5070482;28;20024;-50
2022/05/01 12:27:10;;;;;;;15.25;6.25;;;21.90;45.50;;;;;;5071602;28;20024;-51
2022/05/01 12:29:39;;;;;;;7.70;4.72;;;22.20;48.90;;;;;;5071230;28;20028;-50
2022/05/01 12:32:06;;;;;;;14.63;5.78;;;22.10;45.10;;;;;;5071167;28;20033;-49
2022/05/01 12:34:43;;;;;;;8.75;6.10;;;22.00;45.60;;;;;;5072039;28;20029;-50
2022/05/01 12:37:17;;;;;;;12.35;6.03;;;22.00;45.20;;;;;;5071520;28;20021;-51
2022/05/01 12:39:55;;;;;;;8.63;4.80;;;22.10;47.40;;;;;;5071040;28;20149;-50
2022/05/01 12:45:17;;;;;;;7.57;4.70;;;22.80;46.00;;;;;;5069930;28;20082;-49
2022/05/01 12:47:47;;;;;;;11.13;5.38;;;23.50;49.20;;;;;;5069304;28;20384;-50
2022/05/01 12:50:18;;;;;;;9.18;5.30;;;23.50;46.30;;;;;;5069807;28;20146;-52
2022/05/01 12:52:49;;;;;;;10.98;5.90;;;23.70;47.20;;;;;;5069507;28;20567;-48
2022/05/01 12:55:29;;;;;;;11.38;6.45;;;23.60;45.00;;;;;;5069897;28;20384;-51
2022/05/01 12:57:57;;;;;;;10.15;6.25;;;23.40;44.70;;;;;;5069968;28;20024;-48
2022/05/01 13:00:33;;;;;;;12.00;6.18;;;23.70;45.80;;;;;;5070191;28;20059;-49
2022/05/01 13:03:21;;;;;;;11.00;6.25;;;23.80;44.30;;;;;;5069272;28;20032;-50
2022/05/01 13:05:58;;;;;;;12.30;6.20;;;24.00;44.10;;;;;;5059890;28;20032;-48
2022/05/01 13:08:24;;;;;;;11.57;6.97;;;23.90;45.10;;;;;;5052218;28;20081;-48
2022/05/01 13:11:28;;;;;;;11.55;6.55;;;24.10;44.80;;;;;;5069293;28;20092;-52
2022/05/01 13:13:55;;;;;;;12.77;6.20;;;23.80;42.20;;;;;;5070049;28;20435;-49
2022/05/01 13:16:23;;;;;;;11.80;6.03;;;23.20;43.00;;;;;;5070670;28;20036;-51
2022/05/01 13:18:54;;;;;;;10.98;5.35;;;22.80;44.30;;;;;;5067134;28;20185;-51
2022/05/01 13:21:22;;;;;;;12.35;5.40;;;22.70;42.60;;;;;;5069290;28;20028;-50